Time;durP1;ratioP1;P1;durP2;ratioP2;P2;SDS_P1;SDS_P2;PMS_P1;PMS_P2;Temp;Humidity;BMP_temperature;BMP_pressure;BME280_temperature;BME280_humidity;BME280_pressure;Samples;Min_cycle;Max_cycle;Signal;HPM_P1;HPM_P2
2021/11/09 00:01:02;;;;;;;;;41.25;33.50;;;;;12.32;57.58;101955.78;2076135;28;47215;-58
2021/11/09 00:02:06;;;;;;;;;38.00;32.40;;;;;12.31;57.65;101954.03;2078213;28;47960;-59
2021/11/09 00:03:09;;;;;;;;;36.80;33.60;;;;;12.31;57.64;101946.91;2088386;28;48148;-59
2021/11/09 00:04:09;;;;;;;;;30.80;30.60;;;;;12.31;57.84;101951.34;2083891;28;47366;-59
2021/11/09 00:05:13;;;;;;;;;28.75;27.00;;;;;12.31;57.94;101948.69;2080086;28;47407;-58
2021/11/09 00:06:25;;;;;;;;;37.60;31.20;;;;;12.30;57.79;101946.94;2081448;28;47455;-59
2021/11/09 00:07:34;;;;;;;;;42.40;35.40;;;;;12.29;57.94;101948.72;2087494;28;48216;-59
2021/11/09 00:08:48;;;;;;;;;36.40;32.80;;;;;12.29;57.90;101950.50;2082780;28;45947;-58
2021/11/09 00:10:01;;;;;;;;;35.40;33.00;;;;;12.28;57.70;101951.41;2088665;28;47447;-58
2021/11/09 00:11:01;;;;;;;;;28.80;28.60;;;;;12.26;57.72;101946.09;2081097;28;48376;-58
2021/11/09 00:12:02;;;;;;;;;36.75;31.25;;;;;12.27;57.78;101949.63;2081891;28;47837;-59
2021/11/09 00:13:03;;;;;;;;;38.00;33.00;;;;;12.25;57.82;101940.78;2089613;28;46895;-58
2021/11/09 00:14:05;;;;;;;;;32.60;31.60;;;;;12.24;57.91;101945.22;2084153;28;47481;-59
2021/11/09 00:15:08;;;;;;;;;33.20;31.80;;;;;12.24;57.81;101942.56;2082890;28;47336;-58
2021/11/09 00:16:09;;;;;;;;;38.00;35.00;;;;;12.26;57.93;101945.19;2087578;28;47317;-59
2021/11/09 00:17:10;;;;;;;;;36.00;33.25;;;;;12.25;58.02;101941.66;2082521;28;46216;-58
2021/11/09 00:18:11;;;;;;;;;36.00;32.75;;;;;12.24;58.08;101936.34;2082687;28;47471;-59
2021/11/09 00:19:11;;;;;;;;;41.40;35.00;;;;;12.24;57.92;101942.56;2085866;28;47455;-59
2021/11/09 00:20:15;;;;;;;;;44.25;37.50;;;;;12.23;57.91;101943.47;2075161;28;47092;-57
2021/11/09 00:21:17;;;;;;;;;42.60;36.20;;;;;12.22;57.89;101938.16;2079205;28;48400;-57
2021/11/09 00:22:19;;;;;;;;;42.80;35.20;;;;;12.21;58.01;101931.94;2087045;28;47299;-58
2021/11/09 00:23:19;;;;;;;;;43.00;35.40;;;;;12.21;58.12;101928.41;2083027;28;47618;-58
2021/11/09 00:24:19;;;;;;;;;41.00;36.75;;;;;12.21;57.90;101934.63;2082979;28;47267;-58
2021/11/09 00:25:22;;;;;;;;;45.75;38.75;;;;;12.20;57.89;101927.53;2085886;28;48027;-58
2021/11/09 00:26:23;;;;;;;;;41.60;34.60;;;;;12.20;58.05;101935.50;2091652;28;47211;-58
2021/11/09 00:27:23;;;;;;;;;39.50;34.00;;;;;12.21;58.20;101931.06;2088710;28;47024;-58
2021/11/09 00:28:24;;;;;;;;;43.25;36.50;;;;;12.19;58.27;101924.84;2075808;28;47208;-58
2021/11/09 00:29:24;;;;;;;;;37.75;35.00;;;;;12.20;58.08;101926.66;2075312;28;45375;-58
2021/11/09 00:30:27;;;;;;;;;39.25;34.25;;;;;12.20;58.38;101927.53;2090735;28;47225;-59
2021/11/09 00:31:27;;;;;;;;;40.40;36.00;;;;;12.20;58.20;101927.53;2075562;28;47249;-57
2021/11/09 00:32:28;;;;;;;;;39.00;35.00;;;;;12.21;58.37;101931.06;2081697;28;45052;-57
2021/11/09 00:33:30;;;;;;;;;41.75;36.50;;;;;12.21;58.33;101928.41;2086219;28;47192;-58
2021/11/09 00:34:30;;;;;;;;;43.20;37.20;;;;;12.21;58.10;101929.28;2084707;28;47855;-57
2021/11/09 00:35:32;;;;;;;;;46.75;38.75;;;;;12.21;58.31;101929.28;2089361;28;47114;-57
2021/11/09 00:36:33;;;;;;;;;49.40;40.20;;;;;12.21;58.17;101931.94;2085439;28;47377;-57
2021/11/09 00:37:33;;;;;;;;;47.25;39.50;;;;;12.21;58.22;101931.94;2076432;28;47244;-57
2021/11/09 00:38:34;;;;;;;;;41.50;36.50;;;;;12.21;58.22;101926.63;2078743;28;47941;-58
2021/11/09 00:39:35;;;;;;;;;50.60;41.60;;;;;12.21;58.22;101928.41;2085743;28;45309;-57
2021/11/09 00:40:38;;;;;;;;;47.75;41.00;;;;;12.20;58.21;101931.97;2084140;28;47340;-58
2021/11/09 00:41:40;;;;;;;;;49.40;41.20;;;;;12.19;58.17;101925.72;2086398;28;47799;-58
2021/11/09 00:42:40;;;;;;;;;50.20;41.80;;;;;12.19;58.06;101927.50;2084962;28;48259;-58
2021/11/09 00:43:42;;;;;;;;;52.50;43.00;;;;;12.17;58.42;101926.66;2080569;28;47316;-58
2021/11/09 00:44:43;;;;;;;;;49.20;42.00;;;;;12.16;58.41;101927.53;2081990;28;47526;-58
2021/11/09 00:45:44;;;;;;;;;49.60;41.80;;;;;12.14;58.33;101930.22;2089578;28;48362;-58
2021/11/09 00:46:44;;;;;;;;;52.60;44.40;;;;;12.13;58.23;101928.47;2089799;28;48535;-57
2021/11/09 00:47:45;;;;;;;;;50.00;42.00;;;;;12.12;58.30;101917.84;2085625;28;46543;-57
2021/11/09 00:48:46;;;;;;;;;47.60;40.80;;;;;12.11;58.23;101924.06;2082071;28;48215;-58
2021/11/09 00:49:46;;;;;;;;;48.25;40.00;;;;;12.10;58.32;101927.63;2082219;28;45114;-58
2021/11/09 00:50:49;;;;;;;;;51.00;42.50;;;;;12.09;58.44;101926.75;2086356;28;47222;-62
2021/11/09 00:51:50;;;;;;;;;50.00;42.00;;;;;12.10;58.52;101924.97;2085408;28;47173;-58
2021/11/09 00:52:52;;;;;;;;;52.75;44.00;;;;;12.08;58.34;101925.84;2082845;28;47343;-58
2021/11/09 00:53:53;;;;;;;;;51.60;41.00;;;;;12.08;58.43;101927.63;2082162;28;47321;-58
2021/11/09 00:54:54;;;;;;;;;53.40;44.60;;;;;12.10;58.31;101930.28;2090842;28;46852;-59
2021/11/09 00:55:54;;;;;;;;;50.75;43.25;;;;;12.10;58.50;101927.63;2086993;28;48283;-57
2021/11/09 00:56:55;;;;;;;;;53.75;44.00;;;;;12.10;58.27;101932.94;2092387;28;47206;-57
2021/11/09 00:57:55;;;;;;;;;54.75;45.00;;;;;12.10;58.42;101930.28;2082709;28;47243;-58
2021/11/09 00:58:57;;;;;;;;;57.75;46.00;;;;;12.09;58.75;101929.41;2074142;28;46887;-58
2021/11/09 00:59:58;;;;;;;;;55.20;46.00;;;;;12.08;58.38;101930.28;2081230;28;48321;-58
2021/11/09 01:00:58;;;;;;;;;53.25;44.25;;;;;12.08;58.33;101928.53;2091001;28;47992;-58
2021/11/09 01:01:59;;;;;;;;;58.50;46.75;;;;;12.08;58.27;101932.97;2082488;28;47075;-56
2021/11/09 01:03:03;;;;;;;;;58.25;47.50;;;;;12.06;58.20;101927.63;2083004;28;45009;-58
2021/11/09 01:04:05;;;;;;;;;57.00;46.40;;;;;12.06;58.36;101929.41;2093221;28;46101;-58
2021/11/09 01:05:06;;;;;;;;;60.40;47.80;;;;;12.06;58.42;101938.25;2093570;28;47417;-58
2021/11/09 01:06:07;;;;;;;;;55.75;46.25;;;;;12.05;58.30;101932.97;2086903;28;47273;-59
2021/11/09 01:07:07;;;;;;;;;55.20;46.20;;;;;12.03;58.51;101937.41;2086672;28;47367;-57
2021/11/09 01:08:10;;;;;;;;;58.25;46.00;;;;;12.03;58.28;101940.97;2089880;28;46948;-57
2021/11/09 01:09:12;;;;;;;;;52.00;43.00;;;;;12.03;58.56;101940.97;2082248;28;47661;-58
2021/11/09 01:10:13;;;;;;;;;56.60;45.40;;;;;12.03;58.31;101940.97;2083004;28;48108;-58
2021/11/09 01:11:13;;;;;;;;;57.50;47.25;;;;;12.03;58.55;101935.63;2085321;28;47654;-58
2021/11/09 01:12:14;;;;;;;;;55.75;46.00;;;;;12.03;58.33;101940.06;2090431;28;47343;-58
2021/11/09 01:13:16;;;;;;;;;58.20;48.00;;;;;12.03;58.31;101945.41;2083221;28;47626;-57
2021/11/09 01:14:17;;;;;;;;;59.00;48.00;;;;;12.02;58.38;101938.31;2081611;28;48345;-58
2021/11/09 01:15:17;;;;;;;;;54.00;46.00;;;;;12.03;58.31;101945.41;2082050;28;47457;-58
2021/11/09 01:16:18;;;;;;;;;57.75;48.25;;;;;12.03;58.30;101942.72;2091003;28;47609;-58
2021/11/09 01:17:19;;;;;;;;;54.60;46.20;;;;;12.03;58.49;101945.41;2086474;28;47039;-58
2021/11/09 01:18:24;;;;;;;;;61.00;50.25;;;;;12.02;58.45;101943.63;2081087;28;46019;-57
2021/11/09 01:19:26;;;;;;;;;59.20;48.20;;;;;12.01;58.44;101941.88;2081213;28;47246;-58
2021/11/09 01:20:27;;;;;;;;;59.60;49.00;;;;;11.98;58.34;101942.78;2090885;28;48119;-58
2021/11/09 01:21:28;;;;;;;;;58.00;46.20;;;;;12.00;58.39;101942.78;2090557;28;48397;-58
2021/11/09 01:22:28;;;;;;;;;61.75;49.25;;;;;11.97;58.42;101938.34;2088020;28;48322;-58
2021/11/09 01:23:29;;;;;;;;;60.50;49.25;;;;;11.97;58.35;101941.03;2074019;28;46301;-58
2021/11/09 01:24:30;;;;;;;;;56.80;46.20;;;;;11.96;58.58;101933.94;2074222;28;47435;-58
2021/11/09 01:25:32;;;;;;;;;59.00;48.50;;;;;11.95;58.64;101945.47;2076006;28;47281;-58
2021/11/09 01:26:33;;;;;;;;;62.00;50.40;;;;;11.94;58.46;101946.38;2079883;28;48198;-58
2021/11/09 01:27:35;;;;;;;;;59.25;49.00;;;;;11.94;58.59;101941.06;2078372;28;48205;-59
2021/11/09 01:28:37;;;;;;;;;61.40;50.40;;;;;11.94;58.50;101940.13;2075873;28;47868;-58
2021/11/09 01:29:38;;;;;;;;;60.80;50.00;;;;;11.93;58.44;101943.69;2089802;28;47540;-58
2021/11/09 01:30:40;;;;;;;;;61.60;50.00;;;;;11.93;58.56;101941.91;2090864;28;47283;-58
2021/11/09 01:31:43;;;;;;;;;60.40;48.80;;;;;11.93;58.54;101944.56;2087479;28;47423;-57
2021/11/09 01:32:43;;;;;;;;;57.80;46.80;;;;;11.93;58.66;101946.34;2085327;28;47404;-58
2021/11/09 01:33:44;;;;;;;;;59.25;48.75;;;;;11.92;58.66;101939.28;2087744;28;48445;-57
2021/11/09 01:34:45;;;;;;;;;59.00;48.50;;;;;11.92;58.82;101947.25;2090634;28;48113;-58
2021/11/09 01:35:45;;;;;;;;;58.75;48.50;;;;;11.91;58.81;101941.06;2088033;28;48436;-58
2021/11/09 01:36:46;;;;;;;;;58.50;49.00;;;;;11.91;58.78;101948.16;2086311;28;47288;-58
2021/11/09 01:37:48;;;;;;;;;62.75;50.50;;;;;11.91;58.69;101953.47;2079774;28;46503;-58
2021/11/09 01:38:49;;;;;;;;;57.60;47.80;;;;;11.90;58.66;101951.72;2082745;28;47568;-57
2021/11/09 01:39:49;;;;;;;;;62.00;50.25;;;;;11.90;58.56;101952.59;2091156;28;48333;-58
2021/11/09 01:40:51;;;;;;;;;59.25;48.00;;;;;11.88;58.64;101949.06;2087846;28;47236;-58
2021/11/09 01:41:52;;;;;;;;;57.80;48.60;;;;;11.88;58.62;101953.50;2091084;28;47760;-58
2021/11/09 01:42:55;;;;;;;;;57.40;46.00;;;;;11.87;58.71;101952.63;2081864;28;48554;-58
2021/11/09 01:43:56;;;;;;;;;64.80;52.60;;;;;11.88;58.54;101961.47;2082531;28;47103;-58
2021/11/09 01:44:56;;;;;;;;;60.25;48.75;;;;;11.88;58.66;101961.47;2082249;28;47401;-58
2021/11/09 01:45:58;;;;;;;;;60.50;50.25;;;;;11.86;58.56;101961.50;2079683;28;47342;-58
2021/11/09 01:46:58;;;;;;;;;60.40;48.80;;;;;11.86;58.63;101963.28;2084224;28;48273;-58
2021/11/09 01:47:59;;;;;;;;;62.25;51.00;;;;;11.86;58.83;101961.50;2082598;28;47267;-58
2021/11/09 01:49:00;;;;;;;;;61.25;49.00;;;;;11.86;58.84;101963.28;2082564;28;48123;-58
2021/11/09 01:50:03;;;;;;;;;61.20;48.20;;;;;11.85;58.69;101954.41;2078075;28;47383;-58
2021/11/09 01:51:08;;;;;;;;;58.20;48.40;;;;;11.84;58.81;101957.09;2078752;28;47346;-58
2021/11/09 01:52:08;;;;;;;;;57.80;48.60;;;;;11.84;58.70;101959.75;2090155;28;47377;-58
2021/11/09 01:53:10;;;;;;;;;56.00;46.00;;;;;11.82;58.78;101957.09;2086364;28;47399;-56
2021/11/09 01:54:11;;;;;;;;;61.00;49.60;;;;;11.82;58.87;101962.41;2089280;28;47294;-58
2021/11/09 01:55:16;;;;;;;;;66.25;52.75;;;;;11.82;58.83;101958.88;2088627;28;47270;-58
2021/11/09 01:56:21;;;;;;;;;63.60;52.60;;;;;11.80;59.01;101964.19;2092102;28;47848;-58
2021/11/09 01:57:22;;;;;;;;;71.60;59.80;;;;;11.79;58.89;101957.09;2089462;28;48614;-58
2021/11/09 01:58:24;;;;;;;;;69.75;56.50;;;;;11.78;59.11;101958.84;2082475;28;48266;-57
2021/11/09 01:59:28;;;;;;;;;68.20;55.60;;;;;11.78;59.09;101952.66;2084763;28;48236;-58
2021/11/09 02:00:46;;;;;;;;;67.60;54.00;;;;;11.78;58.81;101952.66;2091923;28;48361;-58
2021/11/09 02:01:48;;;;;;;;;63.40;52.00;;;;;11.76;58.84;101957.09;2077829;28;47324;-57
2021/11/09 02:02:50;;;;;;;;;62.40;51.00;;;;;11.76;58.78;101950.00;2079503;28;48074;-58
2021/11/09 02:03:55;;;;;;;;;64.20;51.00;;;;;11.76;58.62;101951.78;2089809;28;47317;-58
2021/11/09 02:04:55;;;;;;;;;55.80;47.00;;;;;11.75;58.89;101952.66;2089301;28;47488;-58
2021/11/09 02:05:56;;;;;;;;;62.25;50.25;;;;;11.74;58.86;101945.59;2080787;28;47366;-56
2021/11/09 02:06:57;;;;;;;;;62.50;50.50;;;;;11.74;58.65;101953.56;2074831;28;47337;-56
2021/11/09 02:08:00;;;;;;;;;63.75;51.25;;;;;11.73;58.69;101944.72;2080754;28;48037;-57
2021/11/09 02:09:06;;;;;;;;;57.00;48.00;;;;;11.73;58.74;101951.81;2083240;28;46869;-57
2021/11/09 02:10:07;;;;;;;;;64.60;51.80;;;;;11.71;58.57;101950.94;2077011;28;48092;-56
2021/11/09 02:11:10;;;;;;;;;62.75;51.00;;;;;11.71;58.93;101956.25;2078293;28;48389;-56
2021/11/09 02:12:10;;;;;;;;;65.00;52.00;;;;;11.71;58.71;101948.28;2088782;28;47300;-56
2021/11/09 02:13:11;;;;;;;;;63.00;51.75;;;;;11.69;58.86;101947.41;2082980;28;45809;-57
2021/11/09 02:14:11;;;;;;;;;61.75;51.00;;;;;11.69;58.93;101948.28;2078409;28;45227;-57
2021/11/09 02:15:12;;;;;;;;;64.25;51.50;;;;;11.68;58.67;101951.81;2076137;28;48630;-58
2021/11/09 02:16:14;;;;;;;;;59.40;47.80;;;;;11.68;59.02;101948.28;2083063;28;47423;-55
2021/11/09 02:17:15;;;;;;;;;65.80;52.60;;;;;11.67;58.84;101950.06;2085388;28;48242;-56
2021/11/09 02:18:17;;;;;;;;;61.75;51.25;;;;;11.67;58.86;101951.81;2088991;28;47607;-57
2021/11/09 02:19:17;;;;;;;;;61.60;49.80;;;;;11.66;59.04;101950.94;2088696;28;47475;-56
2021/11/09 02:20:22;;;;;;;;;62.25;49.50;;;;;11.65;58.91;101949.19;2076964;28;48108;-56
2021/11/09 02:21:23;;;;;;;;;63.40;51.40;;;;;11.65;58.99;101951.84;2079704;28;47303;-56
2021/11/09 02:22:26;;;;;;;;;62.60;51.40;;;;;11.65;58.95;101959.81;2083079;28;47224;-57
2021/11/09 02:23:28;;;;;;;;;60.00;49.00;;;;;11.64;59.06;101952.72;2083423;28;47433;-56
2021/11/09 02:24:29;;;;;;;;;59.60;49.00;;;;;11.65;58.92;101956.28;2086694;28;45607;-57
2021/11/09 02:25:31;;;;;;;;;63.50;51.50;;;;;11.64;58.96;101952.72;2086278;28;46413;-56
2021/11/09 02:26:32;;;;;;;;;63.60;51.00;;;;;11.64;58.92;101954.50;2074563;28;46965;-57
2021/11/09 02:27:33;;;;;;;;;60.25;49.50;;;;;11.64;58.92;101950.06;2066397;28;48090;-56
2021/11/09 02:28:33;;;;;;;;;61.75;50.00;;;;;11.64;58.76;101959.84;2076048;28;47320;-57
2021/11/09 02:29:35;;;;;;;;;64.25;51.00;;;;;11.63;58.82;101956.28;2083458;28;47348;-55
2021/11/09 02:30:35;;;;;;;;;65.80;52.80;;;;;11.62;58.81;101954.53;2087827;28;46446;-57
2021/11/09 02:31:36;;;;;;;;;62.25;51.50;;;;;11.63;58.77;101960.72;2082929;28;48232;-57
2021/11/09 02:32:37;;;;;;;;;56.40;46.80;;;;;11.63;58.92;101958.06;2083414;28;48199;-56
2021/11/09 02:33:38;;;;;;;;;56.50;46.75;;;;;11.62;58.76;101966.94;2082929;28;48801;-56
2021/11/09 02:34:39;;;;;;;;;61.40;48.60;;;;;11.61;59.08;101965.19;2083473;28;48217;-56
2021/11/09 02:35:40;;;;;;;;;59.25;49.00;;;;;11.61;58.93;101967.84;2083002;28;47094;-56
2021/11/09 02:36:40;;;;;;;;;59.60;48.40;;;;;11.62;58.77;101974.91;2085455;28;47398;-60
2021/11/09 02:37:41;;;;;;;;;60.50;49.50;;;;;11.60;58.76;101969.63;2083847;28;48077;-56
2021/11/09 02:38:42;;;;;;;;;61.00;50.00;;;;;11.59;58.80;101965.19;2088136;28;47177;-57
2021/11/09 02:39:43;;;;;;;;;62.25;51.25;;;;;11.58;58.87;101968.75;2082909;28;47372;-56
2021/11/09 02:40:44;;;;;;;;;64.00;52.00;;;;;11.58;58.92;101974.06;2083588;28;46561;-57
2021/11/09 02:41:45;;;;;;;;;61.50;50.25;;;;;11.58;58.72;101971.41;2082889;28;47480;-57
2021/11/09 02:42:50;;;;;;;;;65.00;51.75;;;;;11.58;58.72;101970.53;2083620;28;47062;-56
2021/11/09 02:43:51;;;;;;;;;64.80;52.40;;;;;11.58;58.80;101967.88;2084723;28;48500;-56
2021/11/09 02:44:58;;;;;;;;;64.40;52.80;;;;;11.55;58.74;101974.06;2078476;28;47498;-58
2021/11/09 02:47:08;;;;;;;;;61.00;49.60;;;;;11.53;58.71;101975.84;2082606;28;46405;-56
2021/11/09 02:49:25;;;;;;;;;62.50;51.75;;;;;11.53;58.87;101973.19;2077410;28;48131;-57
2021/11/09 02:50:31;;;;;;;;;64.40;52.40;;;;;11.52;58.93;101974.06;2082548;28;47225;-57
2021/11/09 02:53:33;;;;;;;;;64.20;51.60;;;;;11.50;58.95;101976.75;2078990;28;46250;-56
2021/11/09 02:55:25;;;;;;;;;63.20;52.40;;;;;11.48;58.74;101969.69;2079940;28;47184;-56
2021/11/09 02:56:34;;;;;;;;;61.60;50.40;;;;;11.48;58.89;101964.38;2074632;28;48441;-56
2021/11/09 02:57:53;;;;;;;;;65.00;53.20;;;;;11.47;58.92;101965.25;2079438;28;47245;-56
2021/11/09 02:59:18;;;;;;;;;63.60;50.40;;;;;11.46;59.04;101968.81;2078026;28;47501;-56
2021/11/09 03:00:29;;;;;;;;;67.20;52.40;;;;;11.44;58.98;101963.50;2079755;28;47381;-57
2021/11/09 03:02:48;;;;;;;;;65.40;52.60;;;;;11.43;58.84;101967.06;2078995;28;47489;-57
2021/11/09 03:05:06;;;;;;;;;62.00;51.25;;;;;11.41;58.77;101967.94;2087977;28;45350;-57
2021/11/09 03:06:28;;;;;;;;;64.40;52.20;;;;;11.40;59.04;101967.03;2077444;28;47126;-56
2021/11/09 03:07:36;;;;;;;;;64.40;51.80;;;;;11.38;59.08;101963.53;2080396;28;47432;-57
2021/11/09 03:08:41;;;;;;;;;63.40;51.60;;;;;11.37;58.84;101964.41;2082024;28;48203;-57
2021/11/09 03:09:54;;;;;;;;;61.40;50.80;;;;;11.36;59.00;101967.97;2082105;28;47269;-57
2021/11/09 03:10:56;;;;;;;;;64.00;52.40;;;;;11.36;59.21;101964.44;2078710;28;48387;-57
2021/11/09 03:11:58;;;;;;;;;60.20;50.00;;;;;11.35;58.91;101967.97;2080745;28;45981;-56
2021/11/09 03:13:00;;;;;;;;;66.80;53.20;;;;;11.35;59.06;101970.63;2075682;28;47543;-57
2021/11/09 03:14:01;;;;;;;;;60.80;48.80;;;;;11.34;58.93;101964.44;2077588;28;47281;-56
2021/11/09 03:15:05;;;;;;;;;66.60;54.00;;;;;11.32;59.07;101966.22;2075571;28;47217;-57
2021/11/09 03:16:09;;;;;;;;;62.00;52.20;;;;;11.32;59.00;101958.25;2080482;28;47500;-57
2021/11/09 03:17:19;;;;;;;;;65.60;53.40;;;;;11.32;58.98;101966.22;2084468;28;48483;-57
2021/11/09 03:18:23;;;;;;;;;66.20;52.80;;;;;11.30;58.98;101957.34;2077048;28;47501;-57
2021/11/09 03:44:09;;;;;;;;;70.00;56.20;;;;;11.14;59.62;101964.50;2086349;28;48698;-59
2021/11/09 03:45:28;;;;;;;;;64.20;51.20;;;;;11.11;59.64;101956.56;2079148;28;47232;-56
2021/11/09 03:46:30;;;;;;;;;65.80;53.20;;;;;11.11;59.57;101958.34;2082872;28;47363;-58
2021/11/09 03:47:36;;;;;;;;;61.60;50.00;;;;;11.10;59.48;101953.91;2077117;28;45098;-56
2021/11/09 03:48:37;;;;;;;;;65.40;53.00;;;;;11.09;59.59;101955.69;2070411;28;47504;-56
2021/11/09 03:49:39;;;;;;;;;65.00;52.00;;;;;11.08;59.25;101956.59;2080806;28;47381;-57
2021/11/09 03:50:41;;;;;;;;;67.80;53.00;;;;;11.09;59.26;101962.78;2087553;28;46544;-57
2021/11/09 03:51:41;;;;;;;;;65.40;53.20;;;;;11.09;59.25;101958.34;2082847;28;48509;-56
2021/11/09 03:52:46;;;;;;;;;64.25;52.50;;;;;11.10;59.36;101961.88;2079577;28;47030;-58
2021/11/09 03:53:48;;;;;;;;;63.20;51.20;;;;;11.09;59.30;101962.78;2070904;28;47244;-56
2021/11/09 03:54:55;;;;;;;;;62.60;51.40;;;;;11.08;59.40;101956.59;2076717;28;48280;-56
2021/11/09 03:58:25;;;;;;;;;60.00;50.50;;;;;11.08;59.34;101955.69;2084069;28;46950;-58
2021/11/09 04:00:17;;;;;;;;;66.60;54.00;;;;;11.08;59.47;101955.69;2089057;28;48392;-58
2021/11/09 04:02:45;;;;;;;;;61.80;50.60;;;;;11.05;59.34;101956.59;2074215;28;47181;-57
2021/11/09 04:03:58;;;;;;;;;64.40;52.00;;;;;11.03;59.45;101955.69;2072192;28;48415;-56
2021/11/09 04:05:03;;;;;;;;;69.00;56.40;;;;;11.02;59.36;101969.88;2082787;28;45395;-57
2021/11/09 04:09:49;;;;;;;;;65.00;52.80;;;;;11.00;59.36;101963.69;2087191;28;45497;-57
2021/11/09 04:11:12;;;;;;;;;68.00;53.40;;;;;11.01;59.43;101959.25;2091144;28;46161;-56
2021/11/09 04:14:52;;;;;;;;;62.00;50.20;;;;;10.99;59.49;101961.03;2077779;28;47490;-56
2021/11/09 04:17:17;;;;;;;;;65.60;52.80;;;;;10.98;59.65;101962.81;2090306;28;47863;-58
2021/11/09 04:18:57;;;;;;;;;64.60;53.00;;;;;10.99;59.77;101972.53;2085323;28;46831;-59
2021/11/09 04:20:02;;;;;;;;;67.80;54.20;;;;;10.98;59.58;101964.59;2085471;28;45474;-58
2021/11/09 04:27:05;;;;;;;;;67.00;54.20;;;;;10.93;59.80;101972.59;2091088;28;47866;-59
2021/11/09 04:43:04;;;;;;;;;66.20;52.00;;;;;10.89;59.54;101977.00;2091206;28;45363;-57
2021/11/09 04:46:33;;;;;;;;;66.80;53.40;;;;;10.86;59.62;101976.13;2087914;28;45563;-57
2021/11/09 04:50:26;;;;;;;;;66.20;53.60;;;;;10.84;59.67;101977.91;2091851;28;45559;-58
2021/11/09 05:10:02;;;;;;;;;61.00;50.50;;;;;10.77;60.25;101994.72;2086342;28;47289;-59
2021/11/09 05:11:02;;;;;;;;;62.40;50.00;;;;;10.77;60.04;102000.94;2079487;28;45490;-58
2021/11/09 05:12:03;;;;;;;;;60.00;47.50;;;;;10.77;59.95;101998.25;2082031;28;48375;-58
2021/11/09 05:13:04;;;;;;;;;58.50;48.00;;;;;10.77;60.08;101989.41;2082379;28;45025;-58
2021/11/09 05:14:10;;;;;;;;;59.50;47.25;;;;;10.78;59.74;101988.53;2082692;28;47100;-58
2021/11/09 05:15:10;;;;;;;;;59.00;49.20;;;;;10.77;60.26;101992.97;2089229;28;48760;-59
2021/11/09 05:16:11;;;;;;;;;63.50;52.00;;;;;10.77;60.46;101992.97;2084297;28;47349;-55
2021/11/09 05:17:11;;;;;;;;;55.00;47.00;;;;;10.78;60.16;101992.06;2086953;28;47395;-56
2021/11/09 05:18:12;;;;;;;;;60.75;48.50;;;;;10.79;60.17;101990.28;2087916;28;45442;-57
2021/11/09 05:19:13;;;;;;;;;60.75;48.25;;;;;10.79;60.34;101988.53;2082637;28;47316;-57
2021/11/09 05:20:13;;;;;;;;;58.00;48.50;;;;;10.79;60.14;101991.19;2082926;28;48119;-57
2021/11/09 05:21:14;;;;;;;;;60.50;49.50;;;;;10.80;60.39;101987.66;2080713;28;45364;-57
2021/11/09 05:22:15;;;;;;;;;56.75;46.00;;;;;10.81;60.29;101999.16;2082297;28;48133;-57
2021/11/09 05:23:16;;;;;;;;;57.80;47.60;;;;;10.80;60.26;101992.09;2090585;28;48386;-57
2021/11/09 05:24:16;;;;;;;;;60.75;49.75;;;;;10.81;60.48;101992.09;2082913;28;47403;-57
2021/11/09 05:25:17;;;;;;;;;59.50;49.00;;;;;10.81;60.36;101996.50;2081656;28;47384;-57
2021/11/09 05:26:18;;;;;;;;;58.20;48.60;;;;;10.81;60.41;101993.84;2090667;28;47184;-57
2021/11/09 05:27:19;;;;;;;;;54.50;46.50;;;;;10.81;60.18;101997.41;2081570;28;48380;-57
2021/11/09 05:28:19;;;;;;;;;59.75;49.00;;;;;10.80;60.58;102000.94;2073932;28;46097;-57
2021/11/09 05:29:20;;;;;;;;;59.75;48.75;;;;;10.81;60.25;102001.81;2082124;28;48258;-59
2021/11/09 05:30:21;;;;;;;;;63.75;52.00;;;;;10.81;60.30;102002.72;2091349;28;49771;-58
2021/11/09 05:31:22;;;;;;;;;57.60;48.00;;;;;10.81;60.27;102005.38;2084867;28;47187;-58
2021/11/09 05:32:23;;;;;;;;;62.75;50.00;;;;;10.81;60.21;102009.78;2086290;28;48164;-59
2021/11/09 05:33:23;;;;;;;;;59.20;49.60;;;;;10.82;59.85;102014.22;2088555;28;47826;-60
2021/11/09 05:34:26;;;;;;;;;59.75;50.00;;;;;10.81;60.03;102013.31;2077204;28;48187;-60
2021/11/09 05:35:28;;;;;;;;;61.40;50.20;;;;;10.80;59.77;102019.53;2081244;28;47303;-59
2021/11/09 05:36:34;;;;;;;;;62.20;50.60;;;;;10.80;59.94;102014.22;2091237;28;47332;-59
2021/11/09 05:37:40;;;;;;;;;59.20;49.20;;;;;10.79;59.90;102024.81;2076878;28;47426;-59
2021/11/09 05:39:47;;;;;;;;;60.60;49.60;;;;;10.77;59.82;102016.84;2090090;28;47436;-59
2021/11/09 05:40:53;;;;;;;;;59.80;49.60;;;;;10.76;59.60;102022.16;2086625;28;47552;-59
2021/11/09 05:41:54;;;;;;;;;64.60;51.20;;;;;10.76;59.63;102020.41;2081054;28;48342;-59
2021/11/09 05:42:55;;;;;;;;;60.00;49.00;;;;;10.74;59.63;102016.88;2072501;28;47516;-59
2021/11/09 05:43:56;;;;;;;;;61.00;49.80;;;;;10.75;59.46;102012.44;2079728;28;48282;-59
2021/11/09 05:44:57;;;;;;;;;59.75;48.25;;;;;10.73;59.48;102017.75;2090373;28;47542;-58
2021/11/09 05:45:58;;;;;;;;;59.40;49.20;;;;;10.74;59.62;102015.97;2091023;28;48156;-60
2021/11/09 05:46:58;;;;;;;;;58.25;48.50;;;;;10.73;59.36;102020.41;2082353;28;48079;-60
2021/11/09 05:47:59;;;;;;;;;59.25;48.50;;;;;10.73;59.59;102019.53;2079274;28;47299;-60
2021/11/09 05:49:00;;;;;;;;;57.75;47.25;;;;;10.73;59.32;102014.22;2082724;28;47144;-60
2021/11/09 05:50:00;;;;;;;;;55.75;46.75;;;;;10.72;59.53;102020.41;2086089;28;46013;-60
2021/11/09 05:51:01;;;;;;;;;63.50;51.75;;;;;10.71;59.66;102022.19;2088264;28;46241;-61
2021/11/09 05:52:02;;;;;;;;;62.75;51.25;;;;;10.71;59.58;102023.97;2083055;28;47138;-60
2021/11/09 05:53:02;;;;;;;;;65.40;51.40;;;;;10.70;59.85;102022.19;2086603;28;47338;-60
2021/11/09 05:54:05;;;;;;;;;63.75;51.00;;;;;10.68;59.51;102016.00;2081999;28;45550;-60
2021/11/09 05:55:06;;;;;;;;;60.40;50.20;;;;;10.67;59.77;102023.09;2085147;28;47366;-60
2021/11/09 05:56:06;;;;;;;;;60.75;48.75;;;;;10.66;59.77;102020.41;2083132;28;47248;-60
2021/11/09 05:57:07;;;;;;;;;59.50;49.00;;;;;10.65;59.86;102016.88;2087189;28;47302;-61
2021/11/09 05:58:08;;;;;;;;;58.50;48.25;;;;;10.64;60.04;102023.06;2085467;28;46830;-60
2021/11/09 05:59:08;;;;;;;;;60.50;48.75;;;;;10.63;60.22;102025.72;2085760;28;47360;-60
2021/11/09 06:00:10;;;;;;;;;60.00;49.25;;;;;10.61;60.17;102023.09;2083619;28;46642;-61
2021/11/09 06:01:10;;;;;;;;;56.20;47.40;;;;;10.60;60.22;102026.63;2083896;28;48289;-59
2021/11/09 06:02:12;;;;;;;;;55.00;46.50;;;;;10.60;60.26;102030.16;2084552;28;47284;-61
2021/11/09 06:03:14;;;;;;;;;58.20;48.20;;;;;10.60;60.31;102034.59;2088244;28;47340;-60
2021/11/09 06:04:15;;;;;;;;;56.80;47.00;;;;;10.60;60.38;102034.59;2088209;28;46882;-60
2021/11/09 06:05:16;;;;;;;;;58.00;48.50;;;;;10.59;60.55;102028.41;2088968;28;48126;-61
2021/11/09 06:06:16;;;;;;;;;57.00;47.00;;;;;10.59;60.31;102035.47;2082989;28;48001;-60
2021/11/09 06:07:17;;;;;;;;;58.50;48.25;;;;;10.58;60.40;102034.59;2081803;28;47341;-61
2021/11/09 06:08:18;;;;;;;;;59.75;48.00;;;;;10.59;60.62;102046.09;2081045;28;46253;-60
2021/11/09 06:09:19;;;;;;;;;54.20;46.60;;;;;10.57;60.70;102039.91;2089840;28;48263;-60
2021/11/09 06:10:20;;;;;;;;;52.50;42.75;;;;;10.56;60.66;102033.72;2077101;28;48139;-61
2021/11/09 06:11:20;;;;;;;;;54.00;45.25;;;;;10.56;60.51;102040.78;2081059;28;48171;-60
2021/11/09 06:12:21;;;;;;;;;47.75;40.75;;;;;10.55;60.60;102041.69;2083920;28;46175;-60
2021/11/09 06:13:21;;;;;;;;;50.00;42.75;;;;;10.55;60.21;102049.66;2087837;28;47419;-61
2021/11/09 06:14:22;;;;;;;;;52.75;44.00;;;;;10.54;60.55;102048.75;2088164;28;48526;-61
2021/11/09 06:15:22;;;;;;;;;47.00;40.25;;;;;10.55;60.68;102044.34;2081818;28;47075;-59